sensor_id;sensor_type;location;lat;lon;timestamp;pressure;altitude;pressure_sealevel;temperature;humidity
10806;BME280;5455;53.224;6.000;2022-09-09T00:01:43;100705.72;;;15.50;100.00
10806;BME280;5455;53.224;6.000;2022-09-09T00:04:34;100707.69;;;15.49;100.00
10806;BME280;5455;53.224;6.000;2022-09-09T00:09:47;100708.06;;;15.44;100.00
10806;BME280;5455;53.224;6.000;2022-09-09T00:15:05;100694.97;;;15.41;100.00
10806;BME280;5455;53.224;6.000;2022-09-09T00:21:21;100683.84;;;15.37;100.00
10806;BME280;5455;53.224;6.000;2022-09-09T00:23:56;100687.78;;;15.36;100.00
10806;BME280;5455;53.224;6.000;2022-09-09T00:26:48;100690.19;;;15.34;100.00
10806;BME280;5455;53.224;6.000;2022-09-09T00:32:16;100672.31;;;15.28;100.00
10806;BME280;5455;53.224;6.000;2022-09-09T00:34:52;100674.69;;;15.26;100.00
10806;BME280;5455;53.224;6.000;2022-09-09T00:37:22;100679.06;;;15.27;100.00
10806;BME280;5455;53.224;6.000;2022-09-09T00:39:55;100679.44;;;15.22;100.00
10806;BME280;5455;53.224;6.000;2022-09-09T00:42:36;100674.28;;;15.21;100.00
10806;BME280;5455;53.224;6.000;2022-09-09T00:47:51;100676.28;;;15.17;100.00
10806;BME280;5455;53.224;6.000;2022-09-09T00:56:27;100666.75;;;15.11;100.00
10806;BME280;5455;53.224;6.000;2022-09-09T00:58:34;100670.28;;;15.11;100.00
10806;BME280;5455;53.224;6.000;2022-09-09T01:01:08;100673.06;;;15.11;100.00
10806;BME280;5455;53.224;6.000;2022-09-09T01:03:43;100664.34;;;15.13;100.00
10806;BME280;5455;53.224;6.000;2022-09-09T01:06:31;100669.50;;;15.14;100.00
10806;BME280;5455;53.224;6.000;2022-09-09T01:09:27;100679.03;;;15.13;100.00
10806;BME280;5455;53.224;6.000;2022-09-09T01:27:55;100677.03;;;15.10;100.00
10806;BME280;5455;53.224;6.000;2022-09-09T01:30:23;100667.50;;;15.11;100.00
10806;BME280;5455;53.224;6.000;2022-09-09T01:32:56;100662.75;;;15.12;100.00
10806;BME280;5455;53.224;6.000;2022-09-09T01:38:00;100665.94;;;15.10;100.00
10806;BME280;5455;53.224;6.000;2022-09-09T01:40:27;100663.53;;;15.09;100.00
10806;BME280;5455;53.224;6.000;2022-09-09T01:42:56;100663.16;;;15.07;100.00
10806;BME280;5455;53.224;6.000;2022-09-09T01:45:24;100659.19;;;15.04;100.00
10806;BME280;5455;53.224;6.000;2022-09-09T01:47:53;100652.41;;;15.05;100.00
10806;BME280;5455;53.224;6.000;2022-09-09T01:50:40;100656.00;;;15.06;100.00
10806;BME280;5455;53.224;6.000;2022-09-09T01:53:08;100647.28;;;15.04;100.00
10806;BME280;5455;53.224;6.000;2022-09-09T01:55:40;100650.06;;;15.04;100.00
10806;BME280;5455;53.224;6.000;2022-09-09T02:01:46;100658.38;;;15.04;100.00
10806;BME280;5455;53.224;6.000;2022-09-09T02:04:22;100650.84;;;15.04;100.00
10806;BME280;5455;53.224;6.000;2022-09-09T02:06:56;100647.25;;;14.97;100.00
10806;BME280;5455;53.224;6.000;2022-09-09T02:09:30;100655.59;;;14.97;100.00
10806;BME280;5455;53.224;6.000;2022-09-09T02:12:04;100655.19;;;14.91;100.00
10806;BME280;5455;53.224;6.000;2022-09-09T02:14:50;100659.16;;;14.86;100.00
10806;BME280;5455;53.224;6.000;2022-09-09T02:17:27;100650.41;;;14.84;100.00
10806;BME280;5455;53.224;6.000;2022-09-09T02:20:10;100659.91;;;14.80;100.00
10806;BME280;5455;53.224;6.000;2022-09-09T02:22:47;100657.09;;;14.73;100.00
10806;BME280;5455;53.224;6.000;2022-09-09T02:25:22;100655.53;;;14.68;100.00
10806;BME280;5455;53.224;6.000;2022-09-09T02:27:52;100656.69;;;14.67;100.00
10806;BME280;5455;53.224;6.000;2022-09-09T02:30:20;100657.50;;;14.68;100.00
10806;BME280;5455;53.224;6.000;2022-09-09T02:32:54;100655.91;;;14.67;100.00
10806;BME280;5455;53.224;6.000;2022-09-09T02:35:42;100651.94;;;14.68;100.00
10806;BME280;5455;53.224;6.000;2022-09-09T02:38:12;100657.09;;;14.69;100.00
10806;BME280;5455;53.224;6.000;2022-09-09T02:40:45;100651.56;;;14.66;100.00
10806;BME280;5455;53.224;6.000;2022-09-09T02:43:14;100648.78;;;14.66;100.00
10806;BME280;5455;53.224;6.000;2022-09-09T02:46:03;100646.00;;;14.73;100.00
10806;BME280;5455;53.224;6.000;2022-09-09T02:48:38;100654.34;;;14.76;100.00
10806;BME280;5455;53.224;6.000;2022-09-09T02:56:25;100640.44;;;14.73;100.00
10806;BME280;5455;53.224;6.000;2022-09-09T02:58:57;100646.41;;;14.71;100.00
10806;BME280;5455;53.224;6.000;2022-09-09T03:01:25;100652.34;;;14.70;100.00
10806;BME280;5455;53.224;6.000;2022-09-09T03:03:52;100649.97;;;14.68;100.00
10806;BME280;5455;53.224;6.000;2022-09-09T03:06:19;100663.44;;;14.70;100.00
10806;BME280;5455;53.224;6.000;2022-09-09T03:08:52;100654.31;;;14.73;100.00
10806;BME280;5455;53.224;6.000;2022-09-09T03:11:24;100652.34;;;14.73;100.00
10806;BME280;5455;53.224;6.000;2022-09-09T03:13:51;100646.81;;;14.73;100.00
10806;BME280;5455;53.224;6.000;2022-09-09T03:16:20;100650.41;;;14.77;100.00
10806;BME280;5455;53.224;6.000;2022-09-09T03:18:50;100648.41;;;14.78;100.00
10806;BME280;5455;53.224;6.000;2022-09-09T03:21:17;100639.66;;;14.76;100.00
10806;BME280;5455;53.224;6.000;2022-09-09T03:23:45;100638.09;;;14.75;100.00
10806;BME280;5455;53.224;6.000;2022-09-09T03:26:12;100642.84;;;14.74;100.00
10806;BME280;5455;53.224;6.000;2022-09-09T03:28:44;100649.97;;;14.75;100.00
10806;BME280;5455;53.224;6.000;2022-09-09T03:31:14;100644.03;;;14.77;100.00
10806;BME280;5455;53.224;6.000;2022-09-09T03:33:42;100646.41;;;14.78;100.00
10806;BME280;5455;53.224;6.000;2022-09-09T03:36:12;100643.63;;;14.78;100.00
10806;BME280;5455;53.224;6.000;2022-09-09T03:38:39;100647.22;;;14.82;100.00
10806;BME280;5455;53.224;6.000;2022-09-09T03:41:07;100651.59;;;14.83;100.00
10806;BME280;5455;53.224;6.000;2022-09-09T03:43:36;100649.63;;;14.84;100.00
10806;BME280;5455;53.224;6.000;2022-09-09T03:46:04;100646.03;;;14.87;100.00
10806;BME280;5455;53.224;6.000;2022-09-09T03:48:31;100645.66;;;14.88;100.00
10806;BME280;5455;53.224;6.000;2022-09-09T03:50:59;100646.03;;;14.87;100.00
10806;BME280;5455;53.224;6.000;2022-09-09T03:53:31;100646.03;;;14.87;100.00
10806;BME280;5455;53.224;6.000;2022-09-09T03:55:58;100640.47;;;14.87;100.00
10806;BME280;5455;53.224;6.000;2022-09-09T03:58:28;100648.03;;;14.90;100.00
10806;BME280;5455;53.224;6.000;2022-09-09T04:01:14;100650.03;;;14.89;100.00
10806;BME280;5455;53.224;6.000;2022-09-09T04:03:42;100650.03;;;14.89;100.00
10806;BME280;5455;53.224;6.000;2022-09-09T04:06:10;100645.25;;;14.83;100.00
10806;BME280;5455;53.224;6.000;2022-09-09T04:08:42;100640.47;;;14.80;100.00
10806;BME280;5455;53.224;6.000;2022-09-09T04:11:09;100634.94;;;14.80;100.00
10806;BME280;5455;53.224;6.000;2022-09-09T04:13:38;100636.09;;;14.79;100.00
10806;BME280;5455;53.224;6.000;2022-09-09T04:16:10;100637.31;;;14.78;100.00
10806;BME280;5455;53.224;6.000;2022-09-09T04:18:38;100633.34;;;14.79;100.00
10806;BME280;5455;53.224;6.000;2022-09-09T04:21:06;100643.66;;;14.82;100.00
10806;BME280;5455;53.224;6.000;2022-09-09T04:23:34;100637.31;;;14.85;100.00
10806;BME280;5455;53.224;6.000;2022-09-09T04:26:04;100636.91;;;14.83;100.00
10806;BME280;5455;53.224;6.000;2022-09-09T04:28:35;100634.53;;;14.78;100.00
10806;BME280;5455;53.224;6.000;2022-09-09T04:31:18;100633.34;;;14.79;100.00
10806;BME280;5455;53.224;6.000;2022-09-09T04:33:50;100642.06;;;14.84;100.00
10806;BME280;5455;53.224;6.000;2022-09-09T04:36:18;100644.84;;;14.88;100.00
10806;BME280;5455;53.224;6.000;2022-09-09T04:38:47;100641.69;;;14.93;100.00
10806;BME280;5455;53.224;6.000;2022-09-09T04:41:16;100642.50;;;14.97;100.00
10806;BME280;5455;53.224;6.000;2022-09-09T04:43:44;100642.09;;;15.02;100.00
10806;BME280;5455;53.224;6.000;2022-09-09T04:46:13;100646.88;;;15.02;100.00
10806;BME280;5455;53.224;6.000;2022-09-09T04:48:42;100640.53;;;15.01;100.00
10806;BME280;5455;53.224;6.000;2022-09-09T04:51:13;100656.41;;;15.04;100.00
10806;BME280;5455;53.224;6.000;2022-09-09T04:53:41;100647.28;;;15.04;100.00
10806;BME280;5455;53.224;6.000;2022-09-09T04:56:13;100656.00;;;15.09;100.00
10806;BME280;5455;53.224;6.000;2022-09-09T04:58:44;100646.88;;;15.12;100.00
10806;BME280;5455;53.224;6.000;2022-09-09T05:01:16;100646.50;;;15.14;100.00
10806;BME280;5455;53.224;6.000;2022-09-09T05:03:46;100649.25;;;15.17;100.00
10806;BME280;5455;53.224;6.000;2022-09-09T05:06:18;100646.13;;;15.22;100.00
10806;BME280;5455;53.224;6.000;2022-09-09T05:08:48;100643.34;;;15.26;100.00
10806;BME280;5455;53.224;6.000;2022-09-09T05:11:24;100646.50;;;15.28;100.00
10806;BME280;5455;53.224;6.000;2022-09-09T05:13:56;100647.31;;;15.32;100.00
10806;BME280;5455;53.224;6.000;2022-09-09T05:16:24;100646.53;;;15.35;100.00
10806;BME280;5455;53.224;6.000;2022-09-09T05:18:51;100656.44;;;15.39;100.00
10806;BME280;5455;53.224;6.000;2022-09-09T05:21:21;100648.50;;;15.41;100.00
10806;BME280;5455;53.224;6.000;2022-09-09T05:23:49;100646.13;;;15.43;100.00
10806;BME280;5455;53.224;6.000;2022-09-09T05:26:20;100646.13;;;15.43;100.00
10806;BME280;5455;53.224;6.000;2022-09-09T05:28:49;100647.31;;;15.46;100.00
10806;BME280;5455;53.224;6.000;2022-09-09T05:31:18;100658.47;;;15.50;100.00
10806;BME280;5455;53.224;6.000;2022-09-09T05:33:49;100657.69;;;15.53;100.00
10806;BME280;5455;53.224;6.000;2022-09-09T05:36:20;100656.09;;;15.55;100.00
10806;BME280;5455;53.224;6.000;2022-09-09T05:38:52;100661.22;;;15.60;100.00
10806;BME280;5455;53.224;6.000;2022-09-09T05:41:21;100657.28;;;15.61;100.00
10806;BME280;5455;53.224;6.000;2022-09-09T05:43:52;100657.28;;;15.65;100.00
10806;BME280;5455;53.224;6.000;2022-09-09T05:46:22;100657.25;;;15.72;100.00
10806;BME280;5455;53.224;6.000;2022-09-09T05:48:51;100664.00;;;15.74;100.00
10806;BME280;5455;53.224;6.000;2022-09-09T05:51:28;100661.22;;;15.78;100.00
10806;BME280;5455;53.224;6.000;2022-09-09T05:54:00;100663.19;;;15.77;100.00
10806;BME280;5455;53.224;6.000;2022-09-09T05:56:31;100667.19;;;15.80;100.00
10806;BME280;5455;53.224;6.000;2022-09-09T05:58:59;100667.56;;;15.82;100.00
10806;BME280;5455;53.224;6.000;2022-09-09T06:01:32;100669.97;;;15.80;100.00
10806;BME280;5455;53.224;6.000;2022-09-09T06:04:02;100675.91;;;15.82;100.00
10806;BME280;5455;53.224;6.000;2022-09-09T06:06:33;100671.16;;;15.86;100.00
10806;BME280;5455;53.224;6.000;2022-09-09T06:09:09;100675.91;;;15.89;100.00
10806;BME280;5455;53.224;6.000;2022-09-09T06:11:41;100674.72;;;15.93;100.00
10806;BME280;5455;53.224;6.000;2022-09-09T06:14:09;100672.31;;;15.95;100.00
10806;BME280;5455;53.224;6.000;2022-09-09T06:16:38;100667.13;;;16.05;100.00
10806;BME280;5455;53.224;6.000;2022-09-09T06:19:11;100668.34;;;16.07;100.00
10806;BME280;5455;53.224;6.000;2022-09-09T06:21:40;100670.72;;;16.12;100.00
10806;BME280;5455;53.224;6.000;2022-09-09T06:24:08;100666.72;;;16.17;100.00
10806;BME280;5455;53.224;6.000;2022-09-09T06:26:37;100659.91;;;16.28;100.00
10806;BME280;5455;53.224;6.000;2022-09-09T06:29:06;100660.69;;;16.36;100.00
10806;BME280;5455;53.224;6.000;2022-09-09T06:31:35;100660.25;;;16.44;100.00
10806;BME280;5455;53.224;6.000;2022-09-09T06:34:13;100667.81;;;16.47;100.00
10806;BME280;5455;53.224;6.000;2022-09-09T06:36:44;100663.84;;;16.45;100.00
10806;BME280;5455;53.224;6.000;2022-09-09T06:39:12;100663.81;;;16.56;100.00
10806;BME280;5455;53.224;6.000;2022-09-09T06:41:42;100663.00;;;16.62;100.00
10806;BME280;5455;53.224;6.000;2022-09-09T06:44:38;100665.38;;;16.67;100.00
10806;BME280;5455;53.224;6.000;2022-09-09T06:47:10;100664.16;;;16.75;100.00
10806;BME280;5455;53.224;6.000;2022-09-09T06:49:39;100669.25;;;16.87;100.00
10806;BME280;5455;53.224;6.000;2022-09-09T06:52:08;100683.13;;;16.94;100.00
10806;BME280;5455;53.224;6.000;2022-09-09T06:54:36;100684.34;;;16.97;100.00
10806;BME280;5455;53.224;6.000;2022-09-09T06:57:04;100683.91;;;17.02;100.00
10806;BME280;5455;53.224;6.000;2022-09-09T06:59:54;100687.03;;;17.07;100.00
10806;BME280;5455;53.224;6.000;2022-09-09T07:02:21;100685.44;;;17.10;100.00
10806;BME280;5455;53.224;6.000;2022-09-09T07:04:48;100678.66;;;17.11;100.00
10806;BME280;5455;53.224;6.000;2022-09-09T07:07:17;100677.44;;;17.16;100.00
10806;BME280;5455;53.224;6.000;2022-09-09T07:09:44;100679.03;;;17.17;100.00
10806;BME280;5455;53.224;6.000;2022-09-09T07:12:12;100680.66;;;17.11;100.00
10806;BME280;5455;53.224;6.000;2022-09-09T07:14:46;100679.47;;;17.08;100.00
10806;BME280;5455;53.224;6.000;2022-09-09T07:17:14;100680.66;;;17.07;100.00
10806;BME280;5455;53.224;6.000;2022-09-09T07:19:41;100674.38;;;16.99;100.00
10806;BME280;5455;53.224;6.000;2022-09-09T07:22:08;100676.34;;;16.99;100.00
10806;BME280;5455;53.224;6.000;2022-09-09T07:24:38;100672.38;;;17.00;100.00
10806;BME280;5455;53.224;6.000;2022-09-09T07:27:05;100673.59;;;16.92;100.00
10806;BME280;5455;53.224;6.000;2022-09-09T07:29:33;100670.44;;;16.90;100.00
10806;BME280;5455;53.224;6.000;2022-09-09T07:32:01;100672.06;;;16.84;100.00
10806;BME280;5455;53.224;6.000;2022-09-09T07:34:34;100670.44;;;16.86;100.00
10806;BME280;5455;53.224;6.000;2022-09-09T07:37:02;100674.38;;;16.96;100.00
10806;BME280;5455;53.224;6.000;2022-09-09T07:39:30;100674.75;;;17.01;100.00
10806;BME280;5455;53.224;6.000;2022-09-09T07:41:57;100670.34;;;17.00;100.00
10806;BME280;5455;53.224;6.000;2022-09-09T07:44:25;100668.38;;;17.01;100.00
10806;BME280;5455;53.224;6.000;2022-09-09T07:47:01;100665.19;;;17.02;100.00
10806;BME280;5455;53.224;6.000;2022-09-09T07:49:34;100664.38;;;17.05;100.00
10806;BME280;5455;53.224;6.000;2022-09-09T07:52:03;100666.38;;;17.05;100.00
10806;BME280;5455;53.224;6.000;2022-09-09T07:54:31;100669.53;;;17.07;100.00
10806;BME280;5455;53.224;6.000;2022-09-09T07:57:01;100679.84;;;17.10;100.00
10806;BME280;5455;53.224;6.000;2022-09-09T07:59:32;100670.69;;;17.13;100.00
10806;BME280;5455;53.224;6.000;2022-09-09T08:02:00;100674.56;;;17.30;100.00
10806;BME280;5455;53.224;6.000;2022-09-09T08:04:30;100674.09;;;17.42;100.00
10806;BME280;5455;53.224;6.000;2022-09-09T08:06:59;100670.41;;;17.52;100.00
10806;BME280;5455;53.224;6.000;2022-09-09T08:09:30;100677.09;;;17.65;100.00
10806;BME280;5455;53.224;6.000;2022-09-09T08:12:21;100677.31;;;17.85;100.00
10806;BME280;5455;53.224;6.000;2022-09-09T08:14:50;100678.00;;;17.99;100.00
10806;BME280;5455;53.224;6.000;2022-09-09T08:17:21;100676.06;;;18.30;100.00
10806;BME280;5455;53.224;6.000;2022-09-09T08:19:48;100682.03;;;18.66;100.00
10806;BME280;5455;53.224;6.000;2022-09-09T08:22:20;100675.72;;;18.92;100.00
10806;BME280;5455;53.224;6.000;2022-09-09T08:24:49;100679.25;;;18.96;100.00
10806;BME280;5455;53.224;6.000;2022-09-09T08:27:16;100692.78;;;19.01;100.00
10806;BME280;5455;53.224;6.000;2022-09-09T08:29:43;100686.44;;;18.97;100.00
10806;BME280;5455;53.224;6.000;2022-09-09T08:32:11;100688.22;;;19.11;100.00
10806;BME280;5455;53.224;6.000;2022-09-09T08:34:39;100692.47;;;19.22;100.00
10806;BME280;5455;53.224;6.000;2022-09-09T08:37:17;100690.41;;;19.26;100.00
10806;BME280;5455;53.224;6.000;2022-09-09T08:39:46;100686.03;;;19.25;100.00
10806;BME280;5455;53.224;6.000;2022-09-09T08:42:37;100689.25;;;19.24;100.00
10806;BME280;5455;53.224;6.000;2022-09-09T08:45:21;100685.06;;;19.09;100.00
10806;BME280;5455;53.224;6.000;2022-09-09T08:50:32;100694.09;;;19.20;100.00
10806;BME280;5455;53.224;6.000;2022-09-09T08:53:18;100702.00;;;19.25;100.00
10806;BME280;5455;53.224;6.000;2022-09-09T08:56:01;100705.38;;;19.43;100.00
10806;BME280;5455;53.224;6.000;2022-09-09T08:58:45;100703.25;;;19.51;100.00
10806;BME280;5455;53.224;6.000;2022-09-09T09:04:12;100707.19;;;19.53;100.00
10806;BME280;5455;53.224;6.000;2022-09-09T09:07:22;100709.28;;;19.49;100.00
10806;BME280;5455;53.224;6.000;2022-09-09T09:10:19;100715.97;;;19.55;100.00
10806;BME280;5455;53.224;6.000;2022-09-09T09:13:14;100714.63;;;19.63;100.00
10806;BME280;5455;53.224;6.000;2022-09-09T09:15:44;100723.09;;;19.83;100.00
10806;BME280;5455;53.224;6.000;2022-09-09T09:18:13;100724.97;;;20.13;100.00
10806;BME280;5455;53.224;6.000;2022-09-09T09:23:44;100728.25;;;20.74;100.00
10806;BME280;5455;53.224;6.000;2022-09-09T09:26:11;100725.22;;;20.45;100.00
10806;BME280;5455;53.224;6.000;2022-09-09T09:28:40;100722.47;;;20.42;100.00
10806;BME280;5455;53.224;6.000;2022-09-09T09:31:12;100737.94;;;20.50;100.00
10806;BME280;5455;53.224;6.000;2022-09-09T09:33:50;100734.41;;;20.46;100.00
10806;BME280;5455;53.224;6.000;2022-09-09T09:36:25;100738.72;;;20.50;100.00
10806;BME280;5455;53.224;6.000;2022-09-09T09:39:03;100726.56;;;20.37;100.00
10806;BME280;5455;53.224;6.000;2022-09-09T09:41:52;100736.38;;;20.49;99.75
10806;BME280;5455;53.224;6.000;2022-09-09T09:44:26;100733.41;;;20.36;99.54
10806;BME280;5455;53.224;6.000;2022-09-09T09:47:07;100733.59;;;20.22;100.00
10806;BME280;5455;53.224;6.000;2022-09-09T09:49:35;100736.97;;;20.13;100.00
10806;BME280;5455;53.224;6.000;2022-09-09T09:52:04;100742.50;;;20.17;100.00
10806;BME280;5455;53.224;6.000;2022-09-09T09:54:34;100736.13;;;20.40;99.81
10806;BME280;5455;53.224;6.000;2022-09-09T09:57:11;100749.81;;;20.97;98.65
10806;BME280;5455;53.224;6.000;2022-09-09T09:59:41;100744.50;;;21.38;96.07
10806;BME280;5455;53.224;6.000;2022-09-09T10:02:25;100747.91;;;21.29;92.01
10806;BME280;5455;53.224;6.000;2022-09-09T10:05:18;100743.38;;;21.52;93.29
10806;BME280;5455;53.224;6.000;2022-09-09T10:08:02;100743.72;;;21.89;91.71
10806;BME280;5455;53.224;6.000;2022-09-09T10:10:57;100737.44;;;21.82;89.17
10806;BME280;5455;53.224;6.000;2022-09-09T10:19:01;100744.03;;;21.59;86.49
10806;BME280;5455;53.224;6.000;2022-09-09T10:27:31;100744.09;;;20.41;91.07
10806;BME280;5455;53.224;6.000;2022-09-09T10:30:09;100746.16;;;20.37;94.28
10806;BME280;5455;53.224;6.000;2022-09-09T10:32:49;100741.16;;;20.48;95.41
10806;BME280;5455;53.224;6.000;2022-09-09T10:35:26;100744.09;;;20.41;95.47
10806;BME280;5455;53.224;6.000;2022-09-09T10:38:16;100742.53;;;20.60;97.04
10806;BME280;5455;53.224;6.000;2022-09-09T10:43:46;100746.19;;;21.35;90.12
10806;BME280;5455;53.224;6.000;2022-09-09T10:46:37;100747.38;;;21.86;86.82
10806;BME280;5455;53.224;6.000;2022-09-09T10:52:32;100745.88;;;21.66;84.52
10806;BME280;5455;53.224;6.000;2022-09-09T10:55:16;100742.88;;;21.57;86.10
10806;BME280;5455;53.224;6.000;2022-09-09T10:57:52;100737.88;;;21.64;88.55
10806;BME280;5455;53.224;6.000;2022-09-09T11:00:22;100749.69;;;21.91;87.53
10806;BME280;5455;53.224;6.000;2022-09-09T11:03:00;100744.44;;;22.38;85.86
10806;BME280;5455;53.224;6.000;2022-09-09T11:05:46;100743.03;;;22.46;84.28
10806;BME280;5455;53.224;6.000;2022-09-09T11:08:21;100744.84;;;22.53;83.82
10806;BME280;5455;53.224;6.000;2022-09-09T11:11:26;100746.00;;;22.56;81.19
10806;BME280;5455;53.224;6.000;2022-09-09T11:19:17;100751.38;;;22.50;77.54
10806;BME280;5455;53.224;6.000;2022-09-09T11:21:49;100752.28;;;22.15;79.99
10806;BME280;5455;53.224;6.000;2022-09-09T11:26:47;100749.75;;;21.88;80.12
10806;BME280;5455;53.224;6.000;2022-09-09T11:29:27;100752.94;;;21.90;80.23
10806;BME280;5455;53.224;6.000;2022-09-09T11:32:14;100758.16;;;22.20;81.35
10806;BME280;5455;53.224;6.000;2022-09-09T11:34:56;100755.97;;;22.57;79.67
10806;BME280;5455;53.224;6.000;2022-09-09T11:40:26;100752.59;;;22.49;77.70
10806;BME280;5455;53.224;6.000;2022-09-09T11:43:08;100746.81;;;22.40;76.99
10806;BME280;5455;53.224;6.000;2022-09-09T11:45:36;100758.94;;;22.21;75.30
10806;BME280;5455;53.224;6.000;2022-09-09T11:48:04;100743.94;;;22.27;77.09
10806;BME280;5455;53.224;6.000;2022-09-09T11:50:36;100747.94;;;22.42;76.87
10806;BME280;5455;53.224;6.000;2022-09-09T11:55:34;100754.47;;;22.23;77.14
10806;BME280;5455;53.224;6.000;2022-09-09T11:58:05;100741.41;;;22.17;78.23
10806;BME280;5455;53.224;6.000;2022-09-09T12:00:36;100747.72;;;22.21;77.66
10806;BME280;5455;53.224;6.000;2022-09-09T12:03:05;100744.19;;;22.33;77.23
10806;BME280;5455;53.224;6.000;2022-09-09T12:05:44;100744.06;;;22.81;76.13
10806;BME280;5455;53.224;6.000;2022-09-09T12:08:20;100742.25;;;22.75;73.34
10806;BME280;5455;53.224;6.000;2022-09-09T12:10:58;100743.56;;;22.99;75.47
10806;BME280;5455;53.224;6.000;2022-09-09T12:13:29;100742.75;;;22.98;72.40
10806;BME280;5455;53.224;6.000;2022-09-09T12:15:59;100750.25;;;22.76;72.80
10806;BME280;5455;53.224;6.000;2022-09-09T12:21:18;100747.03;;;22.62;71.22
10806;BME280;5455;53.224;6.000;2022-09-09T12:23:53;100747.84;;;22.46;72.49
10806;BME280;5455;53.224;6.000;2022-09-09T12:29:14;100735.09;;;22.13;75.52
10806;BME280;5455;53.224;6.000;2022-09-09T12:32:00;100732.91;;;22.04;78.20
10806;BME280;5455;53.224;6.000;2022-09-09T12:35:22;100730.06;;;22.20;78.12
10806;BME280;5455;53.224;6.000;2022-09-09T12:37:37;100729.06;;;22.43;76.41
10806;BME280;5455;53.224;6.000;2022-09-09T12:40:23;100732.66;;;22.43;74.70
10806;BME280;5455;53.224;6.000;2022-09-09T12:42:51;100725.41;;;22.30;76.70
10806;BME280;5455;53.224;6.000;2022-09-09T12:45:20;100727.31;;;22.33;75.55
10806;BME280;5455;53.224;6.000;2022-09-09T12:52:51;100721.59;;;21.91;79.92
10806;BME280;5455;53.224;6.000;2022-09-09T12:55:23;100718.06;;;22.04;79.73
10806;BME280;5455;53.224;6.000;2022-09-09T12:57:51;100709.78;;;22.29;79.53
10806;BME280;5455;53.224;6.000;2022-09-09T13:00:21;100712.16;;;22.59;78.65
10806;BME280;5455;53.224;6.000;2022-09-09T13:02:52;100709.78;;;22.86;77.48
10806;BME280;5455;53.224;6.000;2022-09-09T13:07:49;100708.59;;;23.88;71.92
10806;BME280;5455;53.224;6.000;2022-09-09T13:10:28;100703.09;;;23.72;70.01
10806;BME280;5455;53.224;6.000;2022-09-09T13:13:42;100701.19;;;23.19;69.76
10806;BME280;5455;53.224;6.000;2022-09-09T13:16:28;100698.22;;;22.97;70.47
10806;BME280;5455;53.224;6.000;2022-09-09T13:19:14;100700.41;;;23.31;70.64
10806;BME280;5455;53.224;6.000;2022-09-09T13:21:42;100701.16;;;23.06;69.68
10806;BME280;5455;53.224;6.000;2022-09-09T13:24:28;100702.09;;;22.74;71.20
10806;BME280;5455;53.224;6.000;2022-09-09T13:26:59;100698.41;;;22.90;72.74
10806;BME280;5455;53.224;6.000;2022-09-09T13:29:29;100704.50;;;22.88;70.09
10806;BME280;5455;53.224;6.000;2022-09-09T13:32:05;100698.72;;;22.38;73.55
10806;BME280;5455;53.224;6.000;2022-09-09T13:34:34;100698.19;;;22.84;76.29
10806;BME280;5455;53.224;6.000;2022-09-09T13:37:04;100698.03;;;23.67;73.01
10806;BME280;5455;53.224;6.000;2022-09-09T13:39:34;100696.84;;;24.02;71.90
10806;BME280;5455;53.224;6.000;2022-09-09T13:42:03;100698.38;;;24.16;70.03
10806;BME280;5455;53.224;6.000;2022-09-09T13:44:35;100695.53;;;24.29;69.31
10806;BME280;5455;53.224;6.000;2022-09-09T13:47:06;100702.22;;;24.44;67.07
10806;BME280;5455;53.224;6.000;2022-09-09T13:49:36;100705.28;;;24.02;66.65
10806;BME280;5455;53.224;6.000;2022-09-09T13:52:12;100698.69;;;23.33;69.09
10806;BME280;5455;53.224;6.000;2022-09-09T13:54:40;100703.53;;;22.66;71.37
10806;BME280;5455;53.224;6.000;2022-09-09T13:57:16;100699.59;;;22.35;74.55
10806;BME280;5455;53.224;6.000;2022-09-09T13:59:45;100704.66;;;22.40;73.67
10806;BME280;5455;53.224;6.000;2022-09-09T14:02:30;100701.38;;;22.29;74.78
10806;BME280;5455;53.224;6.000;2022-09-09T14:04:57;100703.16;;;22.35;76.85
10806;BME280;5455;53.224;6.000;2022-09-09T14:07:25;100702.03;;;22.90;78.46
10806;BME280;5455;53.224;6.000;2022-09-09T14:09:51;100707.66;;;23.91;74.49
10806;BME280;5455;53.224;6.000;2022-09-09T14:12:19;100698.03;;;24.27;70.89
10806;BME280;5455;53.224;6.000;2022-09-09T14:14:46;100703.38;;;24.34;70.64
10806;BME280;5455;53.224;6.000;2022-09-09T14:17:13;100693.03;;;24.31;70.73
10806;BME280;5455;53.224;6.000;2022-09-09T14:19:41;100696.56;;;24.09;70.59
10806;BME280;5455;53.224;6.000;2022-09-09T14:22:09;100684.16;;;23.85;72.70
10806;BME280;5455;53.224;6.000;2022-09-09T14:24:36;100689.03;;;23.47;72.33
10806;BME280;5455;53.224;6.000;2022-09-09T14:27:03;100693.16;;;23.17;75.69
10806;BME280;5455;53.224;6.000;2022-09-09T14:29:30;100681.13;;;23.29;75.95
10806;BME280;5455;53.224;6.000;2022-09-09T14:31:57;100677.31;;;23.36;74.14
10806;BME280;5455;53.224;6.000;2022-09-09T14:34:25;100679.47;;;23.57;72.41
10806;BME280;5455;53.224;6.000;2022-09-09T14:36:52;100678.44;;;23.76;71.29
10806;BME280;5455;53.224;6.000;2022-09-09T14:39:19;100682.00;;;23.77;68.68
10806;BME280;5455;53.224;6.000;2022-09-09T14:41:46;100686.91;;;23.51;69.34
10806;BME280;5455;53.224;6.000;2022-09-09T14:44:13;100683.50;;;23.18;71.10
10806;BME280;5455;53.224;6.000;2022-09-09T14:46:40;100684.41;;;23.28;73.87
10806;BME280;5455;53.224;6.000;2022-09-09T14:49:09;100684.06;;;23.76;71.70
10806;BME280;5455;53.224;6.000;2022-09-09T14:51:37;100675.31;;;23.96;70.20
10806;BME280;5455;53.224;6.000;2022-09-09T14:54:04;100679.72;;;23.97;69.04
10806;BME280;5455;53.224;6.000;2022-09-09T14:56:32;100686.19;;;23.09;67.48
10806;BME280;5455;53.224;6.000;2022-09-09T14:59:03;100675.38;;;23.08;70.05
10806;BME280;5455;53.224;6.000;2022-09-09T15:01:31;100672.25;;;23.43;69.60
10806;BME280;5455;53.224;6.000;2022-09-09T15:04:01;100688.03;;;23.41;68.97